createdAt,value
2023-04-26T00:00:14.747Z,7.90
2023-04-26T00:02:42.616Z,8.00
2023-04-26T00:05:10.864Z,7.90
2023-04-26T00:07:39.171Z,7.90
2023-04-26T00:10:08.315Z,7.80
2023-04-26T00:12:36.893Z,7.90
2023-04-26T00:15:05.746Z,7.80
2023-04-26T00:17:35.034Z,7.90
2023-04-26T00:20:06.544Z,7.90
2023-04-26T00:22:34.347Z,7.80
2023-04-26T00:25:02.472Z,7.80
2023-04-26T00:27:30.276Z,7.80
2023-04-26T00:29:58.139Z,7.80
2023-04-26T00:32:26.011Z,7.80
2023-04-26T00:34:55.395Z,7.80
2023-04-26T00:37:23.248Z,7.80
2023-04-26T00:39:51.080Z,7.80
2023-04-26T00:42:19.589Z,7.80
2023-04-26T00:44:47.365Z,7.90
2023-04-26T00:47:15.135Z,7.70
2023-04-26T00:49:42.971Z,7.70
2023-04-26T00:52:12.401Z,7.70
2023-04-26T00:54:41.163Z,7.70
2023-04-26T00:57:09.661Z,7.70
2023-04-26T00:59:37.518Z,7.70
2023-04-26T01:02:05.567Z,7.70
2023-04-26T01:04:33.599Z,7.70
2023-04-26T01:07:02.830Z,7.70
2023-04-26T01:09:33.367Z,7.70
2023-04-26T01:12:01.842Z,7.70
2023-04-26T01:14:30.139Z,7.70
2023-04-26T01:16:58.477Z,7.70
2023-04-26T01:19:26.520Z,7.70
2023-04-26T01:21:54.313Z,7.70
2023-04-26T01:24:23.446Z,7.70
2023-04-26T01:26:51.279Z,7.70
2023-04-26T01:29:20.923Z,7.70
2023-04-26T01:31:49.803Z,7.80
2023-04-26T01:34:18.135Z,7.70
2023-04-26T01:36:45.951Z,7.70
2023-04-26T01:39:13.811Z,7.70
2023-04-26T01:41:42.921Z,7.70
2023-04-26T01:44:10.803Z,7.60
2023-04-26T01:46:38.648Z,7.60
2023-04-26T01:49:06.480Z,7.60
2023-04-26T01:51:35.148Z,7.70
2023-04-26T01:54:03.256Z,7.60
2023-04-26T01:56:31.213Z,7.60
2023-04-26T01:59:00.335Z,7.60
2023-04-26T02:01:28.229Z,7.60
2023-04-26T02:03:56.073Z,7.60
2023-04-26T02:06:24.112Z,7.60
2023-04-26T02:08:52.133Z,7.60
2023-04-26T02:11:20.072Z,7.60
2023-04-26T02:13:47.904Z,7.60
2023-04-26T02:16:17.150Z,7.50
2023-04-26T02:18:45.350Z,7.50
2023-04-26T02:21:13.676Z,7.50
2023-04-26T02:23:41.547Z,7.50
2023-04-26T02:26:09.310Z,7.50
2023-04-26T02:28:37.277Z,7.40
2023-04-26T02:31:05.745Z,7.50
2023-04-26T02:33:35.437Z,7.50
2023-04-26T02:36:05.270Z,7.50
2023-04-26T02:38:34.597Z,7.50
2023-04-26T02:41:02.640Z,7.50
2023-04-26T02:43:30.894Z,7.50
2023-04-26T02:46:00.981Z,7.50
2023-04-26T02:48:28.790Z,7.50
2023-04-26T02:50:58.051Z,7.50
2023-04-26T02:53:25.786Z,7.40
2023-04-26T02:55:53.509Z,7.40
2023-04-26T02:58:21.328Z,7.40
2023-04-26T03:00:49.202Z,7.40
2023-04-26T03:03:17.352Z,7.40
2023-04-26T03:05:46.121Z,7.40
2023-04-26T03:08:15.287Z,7.40
2023-04-26T03:10:43.068Z,7.40
2023-04-26T03:13:10.871Z,7.40
2023-04-26T03:15:38.632Z,7.40
2023-04-26T03:18:06.682Z,7.30
2023-04-26T03:20:34.477Z,7.30
2023-04-26T03:23:02.241Z,7.30
2023-04-26T03:25:31.534Z,7.30
2023-04-26T03:27:59.306Z,7.30
2023-04-26T03:30:27.057Z,7.30
2023-04-26T03:32:54.930Z,7.30
2023-04-26T03:35:22.714Z,7.30
2023-04-26T03:37:53.153Z,7.20
2023-04-26T03:40:21.197Z,7.20
2023-04-26T03:42:50.386Z,7.30
2023-04-26T03:45:18.328Z,7.20
2023-04-26T03:47:46.446Z,7.20
2023-04-26T03:50:14.232Z,7.20
2023-04-26T03:52:42.009Z,7.30
2023-04-26T03:55:11.719Z,7.20
2023-04-26T03:57:39.684Z,7.20
2023-04-26T04:00:11.961Z,7.20
2023-04-26T04:02:39.891Z,7.10
2023-04-26T04:05:08.376Z,7.10
2023-04-26T04:07:36.513Z,7.10
2023-04-26T04:10:04.794Z,7.20
2023-04-26T04:12:32.764Z,7.10
2023-04-26T04:15:00.682Z,7.10
2023-04-26T04:17:29.920Z,7.20
2023-04-26T04:19:57.921Z,7.10
2023-04-26T04:22:26.121Z,7.10
2023-04-26T04:24:54.294Z,7.10
2023-04-26T04:27:22.681Z,7.10
2023-04-26T04:29:50.426Z,7.10
2023-04-26T04:32:18.659Z,7.10
2023-04-26T04:34:49.473Z,7.20
2023-04-26T04:37:18.090Z,7.10
2023-04-26T04:39:46.148Z,7.20
2023-04-26T04:42:13.973Z,7.10
2023-04-26T04:44:42.969Z,7.10
2023-04-26T04:47:10.791Z,7.10
2023-04-26T04:49:38.760Z,7.20
2023-04-26T04:52:08.046Z,7.10
2023-04-26T04:54:36.050Z,7.10
2023-04-26T04:57:04.097Z,7.10
2023-04-26T04:59:33.154Z,7.10
2023-04-26T05:02:01.460Z,7.20
2023-04-26T05:04:29.413Z,7.20
2023-04-26T05:06:57.436Z,7.20
2023-04-26T05:09:26.646Z,7.20
2023-04-26T05:11:54.431Z,7.30
2023-04-26T05:14:22.194Z,7.20
2023-04-26T05:16:50.081Z,7.20
2023-04-26T05:19:17.909Z,7.20
2023-04-26T05:21:45.687Z,7.20
2023-04-26T05:24:13.490Z,7.30
2023-04-26T05:26:43.053Z,7.30
2023-04-26T05:29:10.827Z,7.30
2023-04-26T05:31:38.580Z,7.20
2023-04-26T05:34:06.425Z,7.30
2023-04-26T05:36:34.219Z,7.40
2023-04-26T05:39:02.003Z,7.50
2023-04-26T05:41:29.729Z,7.50
2023-04-26T05:43:58.871Z,7.40
2023-04-26T05:46:26.808Z,7.20
2023-04-26T05:48:54.663Z,7.30
2023-04-26T05:51:22.706Z,7.30
2023-04-26T05:53:50.992Z,7.30
2023-04-26T05:56:18.976Z,7.30
2023-04-26T05:58:47.555Z,7.40
2023-04-26T06:01:16.940Z,7.30
2023-04-26T06:03:46.230Z,7.40
2023-04-26T06:06:15.324Z,7.30
2023-04-26T06:08:44.212Z,7.40
2023-04-26T06:11:11.990Z,7.50
2023-04-26T06:13:39.779Z,7.60
2023-04-26T06:16:08.136Z,7.50
2023-04-26T06:18:37.251Z,7.50
2023-04-26T06:21:05.436Z,7.50
2023-04-26T06:23:33.165Z,7.50
2023-04-26T06:26:00.969Z,7.50
2023-04-26T06:28:28.784Z,7.50
2023-04-26T06:30:56.601Z,7.60
2023-04-26T06:33:24.401Z,7.60
2023-04-26T06:35:53.503Z,7.70
2023-04-26T06:38:21.332Z,7.70
2023-04-26T06:40:49.210Z,8.10
2023-04-26T06:43:16.992Z,8.30
2023-04-26T06:45:44.959Z,8.10
2023-04-26T06:48:12.867Z,8.10
2023-04-26T06:50:41.407Z,9.30
2023-04-26T06:53:10.530Z,8.60
2023-04-26T06:55:38.315Z,8.30
2023-04-26T06:58:06.199Z,8.60
2023-04-26T07:00:34.063Z,8.50
2023-04-26T07:03:02.017Z,8.30
2023-04-26T07:05:31.972Z,8.00
2023-04-26T07:07:59.716Z,8.00
2023-04-26T07:10:28.924Z,8.00
2023-04-26T07:12:56.771Z,8.30
2023-04-26T07:15:24.551Z,9.00
2023-04-26T07:17:52.371Z,9.70
2023-04-26T07:20:22.652Z,10.10
2023-04-26T07:22:50.618Z,9.00
2023-04-26T07:25:18.597Z,8.70
2023-04-26T07:27:47.802Z,8.60
2023-04-26T07:30:16.227Z,8.50
2023-04-26T07:32:44.063Z,8.50
2023-04-26T07:35:15.973Z,8.20
2023-04-26T07:37:44.870Z,8.30
2023-04-26T07:40:14.000Z,8.50
2023-04-26T07:42:41.887Z,8.40
2023-04-26T07:45:12.573Z,8.40
2023-04-26T07:47:40.478Z,8.40
2023-04-26T07:50:09.918Z,8.40
2023-04-26T07:52:37.742Z,8.50
2023-04-26T07:55:06.560Z,8.30
2023-04-26T07:57:34.523Z,8.40
2023-04-26T08:00:02.322Z,8.50
2023-04-26T08:02:43.560Z,8.50
2023-04-26T08:05:12.327Z,8.50
2023-04-26T08:07:40.333Z,8.70
2023-04-26T08:10:09.058Z,8.80
2023-04-26T08:12:37.942Z,8.90
2023-04-26T08:15:06.861Z,9.60
2023-04-26T08:17:36.063Z,11.90
2023-04-26T08:20:05.264Z,10.80
2023-04-26T08:22:33.023Z,10.60
2023-04-26T08:25:00.823Z,9.90
2023-04-26T08:27:29.247Z,9.80
2023-04-26T08:29:57.048Z,10.00
2023-04-26T08:32:24.864Z,9.60
2023-04-26T08:34:54.067Z,8.80
2023-04-26T08:37:21.936Z,8.90
2023-04-26T08:39:49.730Z,10.80
2023-04-26T08:42:18.931Z,10.70
2023-04-26T08:44:47.007Z,10.40
2023-04-26T08:47:18.827Z,10.40
2023-04-26T08:49:50.192Z,10.20
2023-04-26T08:52:23.140Z,10.50
2023-04-26T08:54:52.212Z,11.70
2023-04-26T08:57:20.961Z,11.70
2023-04-26T08:59:49.518Z,11.70
2023-04-26T09:02:20.166Z,11.00
2023-04-26T09:04:49.968Z,10.50
2023-04-26T09:07:22.795Z,11.50
2023-04-26T09:09:51.501Z,10.70
2023-04-26T09:12:21.155Z,10.70
2023-04-26T09:14:49.853Z,10.60
2023-04-26T09:17:29.300Z,10.50
2023-04-26T09:19:57.431Z,10.10
2023-04-26T09:22:37.729Z,10.10
2023-04-26T09:25:07.112Z,10.60
2023-04-26T09:27:37.753Z,9.80
2023-04-26T09:30:09.463Z,9.80
2023-04-26T09:32:52.398Z,10.00
2023-04-26T09:35:25.837Z,9.90
2023-04-26T09:38:00.041Z,9.90
2023-04-26T09:40:31.885Z,10.20
2023-04-26T09:43:04.385Z,9.90
2023-04-26T09:45:33.635Z,10.00
2023-04-26T09:48:16.472Z,9.80
2023-04-26T09:50:45.757Z,10.00
2023-04-26T09:53:27.608Z,10.40
2023-04-26T09:55:56.025Z,11.10
2023-04-26T09:58:24.086Z,11.30
2023-04-26T10:00:52.932Z,10.90
2023-04-26T10:03:21.574Z,11.20
2023-04-26T10:05:49.981Z,11.10
2023-04-26T10:08:19.508Z,10.90
2023-04-26T10:10:49.845Z,10.70
2023-04-26T10:13:19.392Z,10.90
2023-04-26T10:15:48.760Z,11.00
2023-04-26T10:18:17.142Z,11.50
2023-04-26T10:20:49.704Z,11.40
2023-04-26T10:23:22.535Z,11.30
2023-04-26T10:25:50.504Z,11.10
2023-04-26T10:28:19.319Z,11.10
2023-04-26T10:30:56.004Z,11.00
2023-04-26T10:33:24.534Z,11.30
2023-04-26T10:36:10.072Z,11.70
2023-04-26T10:38:41.432Z,11.60
2023-04-26T10:41:32.611Z,11.50
2023-04-26T10:44:22.172Z,11.30
2023-04-26T10:46:52.862Z,11.20
2023-04-26T10:49:24.970Z,11.20
2023-04-26T10:52:14.863Z,11.40
2023-04-26T10:54:50.522Z,11.50
2023-04-26T10:57:19.116Z,12.00
2023-04-26T11:00:32.000Z,11.70
2023-04-26T11:03:13.113Z,12.40
2023-04-26T11:05:54.007Z,12.10
2023-04-26T11:08:25.728Z,12.50
2023-04-26T11:11:11.985Z,11.90
2023-04-26T11:13:41.280Z,12.30
2023-04-26T11:16:10.684Z,11.20
2023-04-26T11:18:41.855Z,12.00
2023-04-26T11:21:10.341Z,11.90
2023-04-26T11:23:38.127Z,11.60
2023-04-26T11:26:08.163Z,11.40
2023-04-26T11:28:37.639Z,12.00
2023-04-26T11:31:07.116Z,12.20
2023-04-26T11:33:35.041Z,12.50
2023-04-26T11:36:04.779Z,13.10
2023-04-26T11:38:32.590Z,12.70
2023-04-26T11:41:01.548Z,12.00
2023-04-26T11:43:36.491Z,12.40
2023-04-26T11:46:05.219Z,12.40
2023-04-26T11:48:34.609Z,13.50
2023-04-26T11:51:05.868Z,13.90
2023-04-26T11:53:38.542Z,13.60
2023-04-26T11:56:14.982Z,13.30
2023-04-26T11:58:45.886Z,12.80
2023-04-26T12:01:20.657Z,12.80
2023-04-26T12:03:51.517Z,12.60
2023-04-26T12:06:21.397Z,12.20
2023-04-26T12:08:52.533Z,12.50
2023-04-26T12:11:21.201Z,12.50
2023-04-26T12:13:49.221Z,12.80
2023-04-26T12:18:54.832Z,12.70
2023-04-26T12:21:26.862Z,12.90
2023-04-26T12:23:56.145Z,13.80
2023-04-26T12:26:40.785Z,13.10
2023-04-26T12:29:09.919Z,13.50
2023-04-26T12:31:37.936Z,12.90
2023-04-26T12:34:05.807Z,12.50
2023-04-26T12:36:35.129Z,12.80
2023-04-26T12:39:05.255Z,12.90
2023-04-26T12:41:33.550Z,12.60
2023-04-26T12:44:01.661Z,12.10
2023-04-26T12:46:29.483Z,12.10
2023-04-26T12:48:57.314Z,12.10
2023-04-26T12:51:25.589Z,12.40
2023-04-26T12:53:54.716Z,12.30
2023-04-26T12:56:22.552Z,12.30
2023-04-26T12:58:50.591Z,12.70
2023-04-26T13:01:18.578Z,12.60
2023-04-26T13:03:48.336Z,12.60
2023-04-26T13:06:16.592Z,13.50
2023-04-26T13:08:44.518Z,13.60
2023-04-26T13:11:13.709Z,13.80
2023-04-26T13:13:44.843Z,13.60
2023-04-26T13:16:14.537Z,13.50
2023-04-26T13:18:42.542Z,13.10
2023-04-26T13:21:10.443Z,13.50
2023-04-26T13:23:38.265Z,13.80
2023-04-26T13:26:06.129Z,13.90
2023-04-26T13:28:38.851Z,14.20
2023-04-26T13:31:10.168Z,13.90
2023-04-26T13:33:38.323Z,13.00
2023-04-26T13:36:07.173Z,13.30
2023-04-26T13:38:34.988Z,12.70
2023-04-26T13:41:03.744Z,13.00
2023-04-26T13:43:31.547Z,13.00
2023-04-26T13:46:02.199Z,13.60
2023-04-26T13:48:30.444Z,13.50
2023-04-26T13:50:58.786Z,13.10
2023-04-26T13:53:26.652Z,13.40
2023-04-26T13:55:55.189Z,13.50
2023-04-26T13:58:22.997Z,13.20
2023-04-26T14:00:50.830Z,12.60
2023-04-26T14:03:20.196Z,12.90
2023-04-26T14:05:49.160Z,12.90
2023-04-26T14:08:17.253Z,13.20
2023-04-26T14:10:45.354Z,13.10
2023-04-26T14:13:13.287Z,13.00
2023-04-26T14:15:41.293Z,13.10
2023-04-26T14:18:09.308Z,12.90
2023-04-26T14:20:38.759Z,13.00
2023-04-26T14:23:06.638Z,13.50
2023-04-26T14:25:34.522Z,13.40
2023-04-26T14:28:03.269Z,13.40
2023-04-26T14:30:31.075Z,12.90
2023-04-26T14:32:58.932Z,13.20
2023-04-26T14:35:27.201Z,13.10
2023-04-26T14:37:56.610Z,13.20
2023-04-26T14:40:24.434Z,13.50
2023-04-26T14:42:52.736Z,13.30
2023-04-26T14:45:23.660Z,13.60
2023-04-26T14:47:56.038Z,13.50
2023-04-26T14:50:23.991Z,13.60
2023-04-26T14:52:51.759Z,13.60
2023-04-26T14:55:22.358Z,13.30
2023-04-26T14:57:50.504Z,12.90
2023-04-26T15:00:18.897Z,13.00
2023-04-26T15:02:47.250Z,12.60
2023-04-26T15:05:15.385Z,12.60
2023-04-26T15:07:43.256Z,12.50
2023-04-26T15:10:11.356Z,12.80
2023-04-26T15:12:40.463Z,12.60
2023-04-26T15:15:09.191Z,12.90
2023-04-26T15:17:37.034Z,13.10
2023-04-26T15:20:07.165Z,13.30
2023-04-26T15:22:37.985Z,13.00
2023-04-26T15:25:07.706Z,13.20
2023-04-26T15:27:36.397Z,13.10
2023-04-26T15:30:07.264Z,13.10
2023-04-26T15:32:35.356Z,13.00
2023-04-26T15:35:04.003Z,12.60
2023-04-26T15:37:31.826Z,12.60
2023-04-26T15:39:59.797Z,12.60
2023-04-26T15:42:27.590Z,12.70
2023-04-26T15:44:55.625Z,12.70
2023-04-26T15:47:32.258Z,12.90
2023-04-26T15:50:03.588Z,12.50
2023-04-26T15:52:31.740Z,12.60
2023-04-26T15:54:59.631Z,12.70
2023-04-26T15:57:27.448Z,12.60
2023-04-26T15:59:55.388Z,12.60
2023-04-26T16:02:23.251Z,12.70
2023-04-26T16:04:52.758Z,12.50
2023-04-26T16:07:20.622Z,12.40
2023-04-26T16:09:48.519Z,12.50
2023-04-26T16:12:16.449Z,12.20
2023-04-26T16:14:44.267Z,12.40
2023-04-26T16:17:12.198Z,12.50
2023-04-26T16:19:40.152Z,12.50
2023-04-26T16:22:09.349Z,12.40
2023-04-26T16:24:37.155Z,12.40
2023-04-26T16:27:05.124Z,12.50
2023-04-26T16:29:33.071Z,12.30
2023-04-26T16:32:01.034Z,12.30
2023-04-26T16:34:29.218Z,12.20
2023-04-26T16:36:57.116Z,12.30
2023-04-26T16:39:28.220Z,12.30
2023-04-26T16:41:56.272Z,12.10
2023-04-26T16:44:24.518Z,12.10
2023-04-26T16:46:52.394Z,12.10
2023-04-26T16:49:20.900Z,11.70
2023-04-26T16:51:53.328Z,12.00
2023-04-26T16:54:21.229Z,11.90
2023-04-26T16:56:50.363Z,11.90
2023-04-26T16:59:18.262Z,11.80
2023-04-26T17:01:46.449Z,11.70
2023-04-26T17:04:14.623Z,11.70
2023-04-26T17:06:42.772Z,11.70
2023-04-26T17:09:10.892Z,11.40
2023-04-26T17:11:43.208Z,11.70
2023-04-26T17:14:12.397Z,11.70
2023-04-26T17:16:40.333Z,11.80
2023-04-26T17:19:08.240Z,11.70
2023-04-26T17:21:36.328Z,11.60
2023-04-26T17:24:04.595Z,11.60
2023-04-26T17:26:35.467Z,11.60
2023-04-26T17:29:03.324Z,11.70
2023-04-26T17:31:32.515Z,11.70
2023-04-26T17:34:01.883Z,11.50
2023-04-26T17:36:31.833Z,11.50
2023-04-26T17:38:59.760Z,11.40
2023-04-26T17:41:27.598Z,11.30
2023-04-26T17:43:55.372Z,11.40
2023-04-26T17:46:23.227Z,11.30
2023-04-26T17:48:52.442Z,11.20
2023-04-26T17:51:20.512Z,11.30
2023-04-26T17:53:48.300Z,11.20
2023-04-26T17:56:16.125Z,11.10
2023-04-26T17:58:43.929Z,11.00
2023-04-26T18:01:11.850Z,11.00
2023-04-26T18:03:41.195Z,11.00
2023-04-26T18:06:10.918Z,11.10
2023-04-26T18:08:38.748Z,11.20
2023-04-26T18:11:06.687Z,11.30
2023-04-26T18:13:34.544Z,11.30
2023-04-26T18:16:03.387Z,11.30
2023-04-26T18:18:31.200Z,11.30
2023-04-26T18:20:58.990Z,11.30
2023-04-26T18:23:28.257Z,11.20
2023-04-26T18:25:56.376Z,11.20
2023-04-26T18:28:24.344Z,11.20
2023-04-26T18:30:57.437Z,11.20
2023-04-26T18:33:25.410Z,11.20
2023-04-26T18:35:53.775Z,11.10
2023-04-26T18:38:21.910Z,11.10
2023-04-26T18:40:51.439Z,11.10
2023-04-26T18:43:19.418Z,11.10
2023-04-26T18:45:47.421Z,11.10
2023-04-26T18:48:15.305Z,11.00
2023-04-26T18:50:51.062Z,11.00
2023-04-26T18:53:19.295Z,11.00
2023-04-26T18:55:47.351Z,11.00
2023-04-26T18:58:16.564Z,11.00
2023-04-26T19:00:44.405Z,10.90
2023-04-26T19:03:12.267Z,10.90
2023-04-26T19:05:41.929Z,10.90
2023-04-26T19:08:10.316Z,10.90
2023-04-26T19:10:40.312Z,10.90
2023-04-26T19:13:08.268Z,10.90
2023-04-26T19:15:37.442Z,10.90
2023-04-26T19:18:06.042Z,10.80
2023-04-26T19:20:33.850Z,10.80
2023-04-26T19:23:01.760Z,10.80
2023-04-26T19:25:30.384Z,10.80
2023-04-26T19:27:58.242Z,10.80
2023-04-26T19:30:26.093Z,10.90
2023-04-26T19:32:55.452Z,10.80
2023-04-26T19:35:23.236Z,10.80
2023-04-26T19:37:51.062Z,10.80
2023-04-26T19:40:18.925Z,10.80
2023-04-26T19:42:46.785Z,10.70
2023-04-26T19:45:20.236Z,10.70
2023-04-26T19:47:48.076Z,10.70
2023-04-26T19:50:17.748Z,10.70
2023-04-26T19:52:46.147Z,10.70
2023-04-26T19:55:14.870Z,10.60
2023-04-26T19:57:42.680Z,10.60
2023-04-26T20:00:11.770Z,10.60
2023-04-26T20:02:39.644Z,10.60
2023-04-26T20:05:09.206Z,10.60
2023-04-26T20:07:38.314Z,10.50
2023-04-26T20:10:07.493Z,10.60
2023-04-26T20:12:35.279Z,10.50
2023-04-26T20:15:03.040Z,10.50
2023-04-26T20:17:30.812Z,10.40
2023-04-26T20:19:58.631Z,10.40
2023-04-26T20:22:26.425Z,10.40
2023-04-26T20:24:55.496Z,10.40
2023-04-26T20:27:23.255Z,10.40
2023-04-26T20:29:51.045Z,10.30
2023-04-26T20:32:18.856Z,10.30
2023-04-26T20:34:46.662Z,10.30
2023-04-26T20:37:14.591Z,10.20
2023-04-26T20:39:42.682Z,10.20
2023-04-26T20:42:11.757Z,10.20
2023-04-26T20:44:39.541Z,10.10
2023-04-26T20:47:07.808Z,10.10
2023-04-26T20:49:35.573Z,10.10
2023-04-26T20:52:03.516Z,10.10
2023-04-26T20:54:31.508Z,10.10
2023-04-26T20:56:59.336Z,10.10
2023-04-26T20:59:28.448Z,10.10
2023-04-26T21:01:56.372Z,10.10
2023-04-26T21:04:24.583Z,10.10
2023-04-26T21:06:52.480Z,10.10
2023-04-26T21:09:20.268Z,10.00
2023-04-26T21:11:48.016Z,10.00
2023-04-26T21:14:15.840Z,10.00
2023-04-26T21:16:45.006Z,9.90
2023-04-26T21:19:12.841Z,9.90
2023-04-26T21:21:40.820Z,9.90
2023-04-26T21:24:08.813Z,9.80
2023-04-26T21:26:36.670Z,9.90
2023-04-26T21:29:04.554Z,9.90
2023-04-26T21:31:32.330Z,9.80
2023-04-26T21:34:01.394Z,9.70
2023-04-26T21:36:29.175Z,9.70
2023-04-26T21:38:56.959Z,9.70
2023-04-26T21:41:25.743Z,9.80
2023-04-26T21:43:55.029Z,9.70
2023-04-26T21:46:22.937Z,9.70
2023-04-26T21:48:51.003Z,9.70
2023-04-26T21:51:20.843Z,9.70
2023-04-26T21:53:48.659Z,9.70
2023-04-26T21:56:16.415Z,9.70
2023-04-26T21:58:44.245Z,9.70
2023-04-26T22:01:15.791Z,9.60
2023-04-26T22:03:43.851Z,9.60
2023-04-26T22:06:11.928Z,9.50
2023-04-26T22:08:41.171Z,9.50
2023-04-26T22:11:08.921Z,9.50
2023-04-26T22:13:36.725Z,9.50
2023-04-26T22:16:04.818Z,9.50
2023-04-26T22:18:32.632Z,9.50
2023-04-26T22:21:00.428Z,9.50
2023-04-26T22:23:28.438Z,9.50
2023-04-26T22:25:59.485Z,9.40
2023-04-26T22:28:27.669Z,9.50
2023-04-26T22:30:55.507Z,9.50
2023-04-26T22:33:23.287Z,9.40
2023-04-26T22:35:51.110Z,9.50
2023-04-26T22:38:18.912Z,9.30
2023-04-26T22:40:46.676Z,9.30
2023-04-26T22:43:15.830Z,9.30
2023-04-26T22:45:43.669Z,9.30
2023-04-26T22:48:11.464Z,9.30
2023-04-26T22:50:39.294Z,9.30
2023-04-26T22:53:07.075Z,9.20
2023-04-26T22:55:34.881Z,9.20
2023-04-26T23:00:50.249Z,9.20
2023-04-26T23:03:18.156Z,9.20
2023-04-26T23:05:47.118Z,9.20
2023-04-26T23:08:14.934Z,9.30
2023-04-26T23:10:42.712Z,9.20
2023-04-26T23:13:10.834Z,9.10
2023-04-26T23:15:38.621Z,9.10
2023-04-26T23:18:07.852Z,9.00
2023-04-26T23:20:35.668Z,9.10
2023-04-26T23:23:03.445Z,9.10
2023-04-26T23:25:31.246Z,9.00
2023-04-26T23:27:59.061Z,9.00
2023-04-26T23:30:26.904Z,9.00
2023-04-26T23:32:54.722Z,9.00
2023-04-26T23:35:23.931Z,8.90
2023-04-26T23:37:52.393Z,8.90
2023-04-26T23:40:20.434Z,8.90
2023-04-26T23:42:48.178Z,9.00
2023-04-26T23:45:16.233Z,8.90
2023-04-26T23:47:43.993Z,8.90
2023-04-26T23:50:12.119Z,8.90
2023-04-26T23:52:41.241Z,8.90
2023-04-26T23:55:10.021Z,8.80
2023-04-26T23:57:37.799Z,8.70
